Time;durP1;ratioP1;P1;durP2;ratioP2;P2;SDS_P1;SDS_P2;PMS_P1;PMS_P2;Temp;Humidity;BMP_temperature;BMP_pressure;BME280_temperature;BME280_humidity;BME280_pressure;Samples;Min_cycle;Max_cycle;Signal;HPM_P1;HPM_P2
2023/09/08 00:01:58;;;;;;;1.05;0.85;;;18.90;99.90;;;;;;4388278;32;21045;-62
2023/09/08 00:04:23;;;;;;;2.33;0.80;;;18.80;99.90;;;;;;4402059;32;20093;-62
2023/09/08 00:06:49;;;;;;;9.25;1.15;;;18.80;99.90;;;;;;4415098;32;20589;-62
2023/09/08 00:09:14;;;;;;;1.33;0.90;;;18.80;99.90;;;;;;4415609;32;20066;-61
2023/09/08 00:11:40;;;;;;;1.00;0.70;;;18.80;99.90;;;;;;4412326;32;20077;-64
2023/09/08 00:14:05;;;;;;;1.65;0.65;;;18.80;99.90;;;;;;4416868;32;20155;-61
2023/09/08 00:16:31;;;;;;;0.80;0.80;;;18.70;99.90;;;;;;4417086;32;20093;-61
2023/09/08 00:18:58;;;;;;;0.93;0.70;;;18.70;99.90;;;;;;4414783;32;20058;-61
2023/09/08 00:21:24;;;;;;;0.57;0.57;;;18.70;99.90;;;;;;4402922;32;20073;-62
2023/09/08 00:23:50;;;;;;;0.88;0.82;;;18.70;99.90;;;;;;4415137;32;20113;-64
2023/09/08 00:26:15;;;;;;;1.25;1.02;;;18.70;99.90;;;;;;4404102;32;20070;-64
2023/09/08 00:28:41;;;;;;;0.50;0.50;;;18.70;99.90;;;;;;4410572;32;20081;-63
2023/09/08 00:31:06;;;;;;;1.08;0.88;;;18.70;99.90;;;;;;4414202;32;20057;-64
2023/09/08 00:33:32;;;;;;;0.50;0.50;;;18.70;99.90;;;;;;4416286;32;20073;-63
2023/09/08 00:35:58;;;;;;;1.75;0.65;;;18.70;99.90;;;;;;4415674;32;20108;-63
2023/09/08 00:38:23;;;;;;;0.65;0.65;;;18.70;99.90;;;;;;4415548;32;20144;-63
2023/09/08 00:40:49;;;;;;;2.25;1.05;;;18.60;99.90;;;;;;4412164;32;20085;-63
2023/09/08 00:43:14;;;;;;;1.15;0.60;;;18.60;99.90;;;;;;4415190;32;20073;-63
2023/09/08 00:45:42;;;;;;;1.12;0.70;;;18.60;99.90;;;;;;4415035;32;20078;-62
2023/09/08 00:48:08;;;;;;;1.23;0.60;;;18.60;99.90;;;;;;4415615;32;20560;-61
2023/09/08 00:50:35;;;;;;;5.18;0.80;;;18.60;99.90;;;;;;4399548;32;20517;-62
2023/09/08 00:53:01;;;;;;;1.12;0.77;;;18.50;99.90;;;;;;4400666;32;20104;-62
2023/09/08 00:55:27;;;;;;;1.02;0.88;;;18.50;99.90;;;;;;4418440;32;20074;-62
2023/09/08 00:57:52;;;;;;;0.57;0.57;;;18.50;99.90;;;;;;4414154;32;20497;-61
2023/09/08 01:00:18;;;;;;;0.75;0.70;;;18.50;99.90;;;;;;4413255;32;20081;-61
2023/09/08 01:02:45;;;;;;;0.60;0.60;;;18.40;99.90;;;;;;4412071;32;20121;-62
2023/09/08 01:05:10;;;;;;;3.95;0.70;;;18.40;99.90;;;;;;4412738;32;20066;-62
2023/09/08 01:07:36;;;;;;;1.02;0.77;;;18.40;99.90;;;;;;4416178;32;20065;-62
2023/09/08 01:10:05;;;;;;;13.20;1.70;;;18.40;99.90;;;;;;4411515;32;20138;-61
2023/09/08 01:12:31;;;;;;;0.93;0.70;;;18.40;99.90;;;;;;4413998;32;20097;-61
2023/09/08 01:14:57;;;;;;;0.75;0.75;;;18.40;99.90;;;;;;4412629;32;20553;-61
2023/09/08 01:17:22;;;;;;;0.40;0.40;;;18.40;99.90;;;;;;4416043;32;20141;-62
2023/09/08 01:19:50;;;;;;;0.40;0.40;;;18.40;99.90;;;;;;4413405;32;20310;-61
2023/09/08 01:22:32;;;;;;;1.05;0.85;;;18.40;99.90;;;;;;4414182;32;20061;-61
2023/09/08 01:25:04;;;;;;;1.80;0.60;;;18.30;99.90;;;;;;4415661;32;20571;-61
2023/09/08 01:27:33;;;;;;;1.02;0.93;;;18.30;99.90;;;;;;4415541;32;20097;-62
2023/09/08 01:30:01;;;;;;;2.42;1.55;;;18.30;99.90;;;;;;4411207;32;20080;-62
2023/09/08 01:32:29;;;;;;;0.52;0.50;;;18.20;99.90;;;;;;4395340;32;20085;-62
2023/09/08 01:34:56;;;;;;;3.72;1.35;;;18.20;99.90;;;;;;4399383;32;20117;-61
2023/09/08 01:37:23;;;;;;;1.70;1.00;;;18.20;99.90;;;;;;4415451;32;20065;-62
2023/09/08 01:39:48;;;;;;;1.23;0.93;;;18.30;99.90;;;;;;4396681;32;20081;-61
2023/09/08 01:42:14;;;;;;;2.60;0.68;;;18.20;99.90;;;;;;4416461;32;20132;-62
2023/09/08 01:44:39;;;;;;;0.73;0.70;;;18.10;99.90;;;;;;4414417;32;20083;-61
2023/09/08 01:47:05;;;;;;;0.65;0.65;;;18.10;99.90;;;;;;4413709;32;20132;-62
2023/09/08 01:49:30;;;;;;;1.35;1.25;;;18.10;99.90;;;;;;4414292;32;20093;-62
2023/09/08 01:51:56;;;;;;;0.45;0.45;;;18.10;99.90;;;;;;4414418;32;20116;-63
2023/09/08 01:54:21;;;;;;;0.50;0.47;;;18.10;99.90;;;;;;4414808;32;20081;-64
2023/09/08 01:56:47;;;;;;;5.22;0.82;;;18.10;99.90;;;;;;4417673;32;20132;-65
2023/09/08 01:59:12;;;;;;;1.35;0.95;;;18.10;99.90;;;;;;4408665;32;20102;-64
2023/09/08 02:01:38;;;;;;;4.20;1.62;;;18.10;99.90;;;;;;4411202;32;20072;-63
2023/09/08 02:04:04;;;;;;;0.77;0.77;;;18.00;99.90;;;;;;4412311;32;20120;-63
2023/09/08 02:06:29;;;;;;;1.80;1.00;;;18.00;99.90;;;;;;4417487;32;21398;-63
2023/09/08 02:08:55;;;;;;;0.50;0.50;;;18.00;99.90;;;;;;4413560;32;20117;-65
2023/09/08 02:11:20;;;;;;;0.57;0.57;;;18.00;99.90;;;;;;4412446;32;20099;-63
2023/09/08 02:13:46;;;;;;;2.62;1.08;;;18.00;99.90;;;;;;4413889;32;20144;-63
2023/09/08 02:16:15;;;;;;;0.50;0.50;;;18.00;99.90;;;;;;4414559;32;20074;-62
2023/09/08 02:18:42;;;;;;;1.12;0.68;;;18.00;99.90;;;;;;4413291;32;20069;-63
2023/09/08 02:21:08;;;;;;;0.47;0.47;;;18.00;99.90;;;;;;4412496;32;20450;-63
2023/09/08 02:23:33;;;;;;;1.80;0.80;;;18.00;99.90;;;;;;4411367;32;20086;-62
2023/09/08 02:25:59;;;;;;;0.80;0.80;;;18.00;99.90;;;;;;4412919;32;20078;-63
2023/09/08 02:28:24;;;;;;;0.50;0.50;;;17.90;99.90;;;;;;4412326;32;20111;-65
2023/09/08 02:30:50;;;;;;;0.50;0.50;;;18.00;99.90;;;;;;4412458;32;20434;-64
2023/09/08 02:33:15;;;;;;;0.70;0.70;;;17.80;99.90;;;;;;4410543;32;20131;-63
2023/09/08 02:35:41;;;;;;;0.80;0.80;;;17.80;99.90;;;;;;4413435;32;20157;-63
2023/09/08 02:38:06;;;;;;;0.80;0.80;;;17.70;99.90;;;;;;4411650;32;20070;-63
2023/09/08 02:40:34;;;;;;;2.67;0.70;;;17.80;99.90;;;;;;4407442;32;21811;-63
2023/09/08 02:43:00;;;;;;;0.80;0.57;;;17.80;99.90;;;;;;4413192;32;20062;-64
2023/09/08 02:45:25;;;;;;;1.17;0.80;;;17.80;99.90;;;;;;4413534;32;20223;-63
2023/09/08 02:47:51;;;;;;;0.65;0.65;;;17.90;99.90;;;;;;4419418;32;20065;-64
2023/09/08 02:50:16;;;;;;;6.03;1.20;;;17.90;99.90;;;;;;4417654;32;20112;-62
2023/09/08 02:52:42;;;;;;;0.98;0.77;;;17.80;99.90;;;;;;4414926;32;20094;-63
2023/09/08 02:55:08;;;;;;;1.10;0.95;;;17.80;99.90;;;;;;4414634;32;20077;-63
2023/09/08 02:57:33;;;;;;;2.08;1.02;;;17.70;99.90;;;;;;4413247;32;20156;-65
2023/09/08 02:59:59;;;;;;;0.68;0.68;;;17.60;99.90;;;;;;4416028;32;20093;-65
2023/09/08 03:02:25;;;;;;;9.60;1.40;;;17.60;99.90;;;;;;4412443;32;20069;-65
2023/09/08 03:04:51;;;;;;;0.90;0.85;;;17.60;99.90;;;;;;4418708;32;20073;-64
2023/09/08 03:07:16;;;;;;;1.08;0.85;;;17.50;99.90;;;;;;4402305;32;20120;-64
2023/09/08 03:09:42;;;;;;;0.75;0.75;;;17.50;99.90;;;;;;4417262;32;20142;-64
2023/09/08 03:12:07;;;;;;;1.08;1.00;;;17.50;99.90;;;;;;4414517;32;20544;-64
2023/09/08 03:14:33;;;;;;;2.78;0.90;;;17.50;99.90;;;;;;4418028;32;20369;-63
2023/09/08 03:16:58;;;;;;;0.75;0.60;;;17.50;99.90;;;;;;4418416;32;20132;-63
2023/09/08 03:19:24;;;;;;;13.55;1.25;;;17.60;99.90;;;;;;4417674;32;20117;-64
2023/09/08 03:21:49;;;;;;;2.12;1.08;;;17.60;99.90;;;;;;4418050;32;20438;-64
2023/09/08 03:24:15;;;;;;;0.88;0.82;;;17.70;99.90;;;;;;4416927;32;20394;-64
2023/09/08 03:26:40;;;;;;;1.83;0.93;;;17.70;99.90;;;;;;4419226;32;20083;-63
2023/09/08 03:29:06;;;;;;;2.50;0.52;;;17.70;99.90;;;;;;4417707;32;20631;-64
2023/09/08 03:31:32;;;;;;;0.60;0.60;;;17.70;99.90;;;;;;4401108;32;20078;-64
2023/09/08 03:33:57;;;;;;;0.75;0.75;;;17.70;99.90;;;;;;4415559;32;20078;-65
2023/09/08 03:36:23;;;;;;;0.73;0.70;;;17.70;99.90;;;;;;4414341;32;20062;-63
2023/09/08 03:38:48;;;;;;;1.65;1.05;;;17.70;99.90;;;;;;4418374;32;20081;-62
2023/09/08 03:41:14;;;;;;;22.33;1.67;;;17.60;99.90;;;;;;4418237;32;20082;-62
2023/09/08 03:43:40;;;;;;;1.80;1.05;;;17.60;99.90;;;;;;4416823;32;20082;-62
2023/09/08 03:46:05;;;;;;;0.77;0.65;;;17.50;99.90;;;;;;4420756;32;20089;-61
2023/09/08 03:48:31;;;;;;;2.37;0.62;;;17.50;99.90;;;;;;4418463;32;20494;-61
2023/09/08 03:50:56;;;;;;;4.05;1.37;;;17.40;99.90;;;;;;4402329;32;20053;-63
2023/09/08 03:53:22;;;;;;;1.95;0.80;;;17.40;99.90;;;;;;4415941;32;20105;-62
2023/09/08 03:55:47;;;;;;;0.62;0.60;;;17.40;99.90;;;;;;4417638;32;20094;-61
2023/09/08 03:58:13;;;;;;;1.52;0.90;;;17.40;99.90;;;;;;4416111;32;20057;-62
2023/09/08 04:00:38;;;;;;;0.70;0.70;;;17.40;99.90;;;;;;4413898;32;20129;-62
2023/09/08 04:03:04;;;;;;;1.10;1.00;;;17.40;99.90;;;;;;4418015;32;20085;-62
2023/09/08 04:05:29;;;;;;;1.65;0.70;;;17.40;99.90;;;;;;4415361;32;20108;-62
2023/09/08 04:07:55;;;;;;;0.50;0.50;;;17.40;99.90;;;;;;4416879;32;20097;-63
2023/09/08 04:10:20;;;;;;;1.55;0.90;;;17.40;99.90;;;;;;4413617;32;20097;-63
2023/09/08 04:12:46;;;;;;;1.33;1.00;;;17.40;99.90;;;;;;4417188;32;20090;-63
2023/09/08 04:15:12;;;;;;;5.90;1.70;;;17.40;99.90;;;;;;4415909;32;20556;-61
2023/09/08 04:17:37;;;;;;;0.68;0.68;;;17.40;99.90;;;;;;4417099;32;20450;-62
2023/09/08 04:20:05;;;;;;;0.73;0.65;;;17.40;99.90;;;;;;4414828;32;20077;-61
2023/09/08 04:22:31;;;;;;;1.15;0.65;;;17.40;99.90;;;;;;4407725;32;20086;-62
2023/09/08 04:24:57;;;;;;;0.45;0.45;;;17.30;99.90;;;;;;4414846;32;20081;-62
2023/09/08 04:27:23;;;;;;;0.68;0.68;;;17.30;99.90;;;;;;4416693;32;20140;-63
2023/09/08 04:29:48;;;;;;;0.60;0.60;;;17.30;99.90;;;;;;4414852;32;20215;-64
2023/09/08 04:32:14;;;;;;;1.80;0.90;;;17.20;99.90;;;;;;4413999;32;20093;-64
2023/09/08 04:34:40;;;;;;;3.17;1.23;;;17.00;99.90;;;;;;4414018;32;20152;-64
2023/09/08 04:37:06;;;;;;;1.35;1.08;;;17.10;99.90;;;;;;4413496;32;20069;-63
2023/09/08 04:39:32;;;;;;;0.47;0.47;;;17.10;99.90;;;;;;4413878;32;20557;-65
2023/09/08 04:41:58;;;;;;;1.70;0.88;;;17.00;99.90;;;;;;4398438;32;20101;-63
2023/09/08 04:44:23;;;;;;;0.50;0.50;;;17.10;99.90;;;;;;4415193;32;20155;-64
2023/09/08 04:46:49;;;;;;;0.47;0.47;;;17.00;99.90;;;;;;4413365;32;20198;-64
2023/09/08 04:49:14;;;;;;;1.00;0.77;;;17.00;99.90;;;;;;4416811;32;20071;-64
2023/09/08 04:51:40;;;;;;;2.05;0.80;;;17.00;99.90;;;;;;4415184;32;20116;-63
2023/09/08 04:54:05;;;;;;;0.62;0.62;;;17.10;99.90;;;;;;4415014;32;20085;-63
2023/09/08 04:56:31;;;;;;;1.33;0.95;;;17.10;99.90;;;;;;4414367;32;20082;-64
2023/09/08 04:58:57;;;;;;;0.40;0.40;;;17.10;99.90;;;;;;4413074;32;20140;-64
2023/09/08 05:01:23;;;;;;;1.23;0.80;;;17.10;99.90;;;;;;4408279;32;20073;-64
2023/09/08 05:03:49;;;;;;;0.60;0.60;;;17.10;99.90;;;;;;4411557;32;20150;-63
2023/09/08 05:06:14;;;;;;;30.02;2.78;;;17.10;99.90;;;;;;4414439;32;20069;-64
2023/09/08 05:08:39;;;;;;;0.98;0.82;;;17.20;99.90;;;;;;4412630;32;20063;-63
2023/09/08 05:11:05;;;;;;;4.78;1.15;;;17.20;99.90;;;;;;4411443;32;20572;-64
2023/09/08 05:13:30;;;;;;;2.03;0.75;;;17.30;99.90;;;;;;4413224;32;20053;-63
2023/09/08 05:16:00;;;;;;;0.73;0.62;;;17.30;99.90;;;;;;4413173;32;20081;-63
2023/09/08 05:18:27;;;;;;;1.05;0.77;;;17.30;99.90;;;;;;4401203;32;20181;-64
2023/09/08 05:20:52;;;;;;;3.12;0.90;;;17.30;99.90;;;;;;4409367;32;20065;-63
2023/09/08 05:23:18;;;;;;;3.85;0.93;;;17.30;99.90;;;;;;4414101;32;20120;-63
2023/09/08 05:25:46;;;;;;;0.73;0.73;;;17.30;99.90;;;;;;4410819;32;20482;-63
2023/09/08 05:28:11;;;;;;;0.90;0.65;;;17.30;99.90;;;;;;4386538;32;20094;-63
2023/09/08 05:30:37;;;;;;;9.70;2.40;;;17.30;99.90;;;;;;4381585;32;20094;-63
2023/09/08 05:33:03;;;;;;;5.05;0.73;;;17.40;99.90;;;;;;4395003;32;20081;-63
2023/09/08 05:35:29;;;;;;;0.45;0.45;;;17.40;99.90;;;;;;4405682;32;20525;-64
2023/09/08 05:37:55;;;;;;;1.60;0.52;;;17.40;99.90;;;;;;4394112;32;20447;-64
2023/09/08 05:40:24;;;;;;;1.33;0.75;;;17.50;99.90;;;;;;4411882;32;20209;-66
2023/09/08 05:42:49;;;;;;;1.42;0.93;;;17.50;99.90;;;;;;4409355;32;20093;-63
2023/09/08 05:45:16;;;;;;;1.80;0.90;;;17.60;99.90;;;;;;4387456;32;20082;-65
2023/09/08 05:47:42;;;;;;;3.03;1.92;;;17.60;99.90;;;;;;4403464;32;20532;-64
2023/09/08 05:50:08;;;;;;;0.75;0.70;;;17.70;99.90;;;;;;4405716;32;20148;-64
2023/09/08 05:52:33;;;;;;;0.62;0.62;;;17.70;99.90;;;;;;4382603;32;20560;-64
2023/09/08 05:54:59;;;;;;;0.65;0.65;;;17.80;99.90;;;;;;4380719;32;20607;-65
2023/09/08 05:57:24;;;;;;;0.65;0.65;;;17.90;99.90;;;;;;4389061;32;20094;-64
2023/09/08 05:59:50;;;;;;;2.50;0.95;;;18.00;99.90;;;;;;4390104;32;20722;-65
2023/09/08 06:02:16;;;;;;;2.12;1.65;;;18.10;99.90;;;;;;4355522;32;20092;-64
2023/09/08 06:04:41;;;;;;;0.80;0.80;;;18.10;99.90;;;;;;4374776;32;20116;-64
2023/09/08 06:07:07;;;;;;;12.57;1.00;;;18.10;99.90;;;;;;4380163;32;20408;-63
2023/09/08 06:09:32;;;;;;;1.02;0.80;;;18.20;99.90;;;;;;4381258;32;20089;-64
2023/09/08 06:11:58;;;;;;;1.10;0.95;;;18.40;99.90;;;;;;4366441;32;20768;-64
2023/09/08 06:14:23;;;;;;;0.60;0.60;;;18.40;99.90;;;;;;4384540;32;20084;-64
2023/09/08 06:16:49;;;;;;;1.27;1.15;;;18.40;99.90;;;;;;4386600;32;20235;-64
2023/09/08 06:19:14;;;;;;;1.00;0.93;;;18.50;99.90;;;;;;4377896;32;20105;-64
2023/09/08 06:21:40;;;;;;;1.58;0.93;;;18.60;99.90;;;;;;4389951;32;20576;-64
2023/09/08 06:24:06;;;;;;;0.88;0.82;;;18.70;99.90;;;;;;4367250;32;20122;-64
2023/09/08 06:26:31;;;;;;;0.98;0.93;;;18.80;99.90;;;;;;4384371;32;20096;-64
2023/09/08 06:28:57;;;;;;;3.67;1.00;;;18.90;99.90;;;;;;4383378;32;20140;-64
2023/09/08 06:31:22;;;;;;;1.70;1.27;;;18.90;99.90;;;;;;4383124;32;20174;-64
2023/09/08 06:33:51;;;;;;;1.05;0.95;;;18.90;99.90;;;;;;4391838;32;20188;-64
2023/09/08 06:36:18;;;;;;;0.65;0.65;;;19.00;99.90;;;;;;4379843;32;20104;-64
2023/09/08 06:38:43;;;;;;;1.25;1.05;;;19.10;99.90;;;;;;4380289;32;20097;-64
2023/09/08 06:41:10;;;;;;;0.90;0.90;;;19.10;99.90;;;;;;4375363;32;20066;-64
2023/09/08 06:43:36;;;;;;;6.65;0.52;;;19.10;99.90;;;;;;4384543;32;20455;-64
2023/09/08 06:46:02;;;;;;;2.92;1.08;;;19.20;99.90;;;;;;4354593;32;20794;-64
2023/09/08 06:48:27;;;;;;;1.37;0.68;;;19.20;99.90;;;;;;4385617;32;20101;-64
2023/09/08 06:50:56;;;;;;;0.57;0.52;;;19.20;99.90;;;;;;4380218;32;20081;-65
2023/09/08 06:53:22;;;;;;;1.25;0.90;;;19.30;99.90;;;;;;4384011;32;20106;-64
2023/09/08 06:55:47;;;;;;;1.40;0.90;;;19.40;99.90;;;;;;4376879;32;20093;-64
2023/09/08 06:58:14;;;;;;;0.73;0.70;;;19.60;99.90;;;;;;4384109;32;20584;-64
2023/09/08 07:00:40;;;;;;;0.50;0.50;;;19.70;99.90;;;;;;4380238;32;20583;-64
2023/09/08 07:03:06;;;;;;;1.62;1.48;;;19.80;99.90;;;;;;4359926;32;20739;-66
2023/09/08 07:05:32;;;;;;;0.75;0.75;;;19.80;99.90;;;;;;4386000;32;20154;-64
2023/09/08 07:07:57;;;;;;;2.67;1.17;;;19.90;99.90;;;;;;4390844;32;20090;-63
2023/09/08 07:10:23;;;;;;;2.85;0.70;;;20.00;99.90;;;;;;4384987;32;20093;-64
2023/09/08 07:12:49;;;;;;;0.70;0.70;;;20.10;99.90;;;;;;4386067;32;20102;-64
2023/09/08 07:15:14;;;;;;;0.95;0.95;;;20.20;99.90;;;;;;4365811;32;20320;-63
2023/09/08 07:17:40;;;;;;;2.87;1.00;;;20.20;99.90;;;;;;4369293;32;20176;-64
2023/09/08 07:20:06;;;;;;;2.25;0.77;;;20.30;99.90;;;;;;4391466;32;20233;-63
2023/09/08 07:22:31;;;;;;;1.83;1.40;;;20.30;99.90;;;;;;4391830;32;20097;-63
2023/09/08 07:24:57;;;;;;;0.95;0.88;;;20.40;99.90;;;;;;4388619;32;20465;-64
2023/09/08 07:27:22;;;;;;;0.82;0.65;;;20.40;99.90;;;;;;4392979;32;20073;-63
2023/09/08 07:29:49;;;;;;;3.83;0.88;;;20.60;99.90;;;;;;4389623;32;20069;-62
2023/09/08 07:32:15;;;;;;;0.93;0.70;;;20.60;99.90;;;;;;4394927;32;20121;-62
2023/09/08 07:34:41;;;;;;;0.60;0.60;;;20.70;99.90;;;;;;4387794;32;20081;-63
2023/09/08 07:37:06;;;;;;;0.80;0.80;;;20.70;99.90;;;;;;4390825;32;20516;-63
2023/09/08 07:39:32;;;;;;;0.60;0.60;;;20.80;99.90;;;;;;4394019;32;20122;-63
2023/09/08 07:41:58;;;;;;;0.93;0.70;;;20.90;99.90;;;;;;4390793;32;20105;-64
2023/09/08 07:44:24;;;;;;;0.50;0.50;;;20.90;99.90;;;;;;4385039;32;20213;-63
2023/09/08 07:46:51;;;;;;;0.70;0.60;;;21.00;99.90;;;;;;4389425;32;20097;-64
2023/09/08 07:49:19;;;;;;;0.52;0.52;;;21.10;99.90;;;;;;4388287;32;20146;-63
2023/09/08 07:51:45;;;;;;;0.47;0.47;;;21.20;99.90;;;;;;4381048;32;21172;-63
2023/09/08 07:54:10;;;;;;;0.60;0.60;;;21.30;99.90;;;;;;4379449;32;21683;-63
2023/09/08 07:56:36;;;;;;;1.37;1.12;;;21.40;99.90;;;;;;4390402;32;20086;-64
2023/09/08 07:59:02;;;;;;;1.10;0.80;;;21.50;99.90;;;;;;4382098;32;21247;-63
2023/09/08 08:01:27;;;;;;;0.73;0.60;;;21.60;99.90;;;;;;4373479;32;20389;-63
2023/09/08 08:03:53;;;;;;;0.60;0.60;;;21.60;99.90;;;;;;4382744;32;21058;-64
2023/09/08 08:06:18;;;;;;;0.60;0.60;;;21.70;99.90;;;;;;4380999;32;20077;-64
2023/09/08 08:08:44;;;;;;;0.70;0.70;;;21.80;99.90;;;;;;4390089;32;20073;-64
2023/09/08 08:11:13;;;;;;;0.50;0.50;;;21.90;99.90;;;;;;4387135;32;20224;-64
2023/09/08 08:13:38;;;;;;;0.62;0.62;;;22.00;99.90;;;;;;4378756;32;20089;-64
2023/09/08 08:16:04;;;;;;;0.43;0.43;;;22.00;99.90;;;;;;4371854;32;20221;-64
2023/09/08 08:18:29;;;;;;;3.20;0.70;;;22.10;99.90;;;;;;4367289;32;20089;-64
2023/09/08 08:20:56;;;;;;;0.55;0.55;;;22.30;99.90;;;;;;4376711;32;20159;-64
2023/09/08 08:23:21;;;;;;;0.57;0.35;;;22.30;99.90;;;;;;4357180;32;20401;-64
2023/09/08 08:25:49;;;;;;;0.95;0.68;;;22.40;99.90;;;;;;4375118;32;20513;-64
2023/09/08 08:28:14;;;;;;;0.52;0.50;;;22.50;99.90;;;;;;4385122;32;20085;-64
2023/09/08 08:30:40;;;;;;;0.40;0.40;;;22.60;99.90;;;;;;4387446;32;20200;-64
2023/09/08 08:33:06;;;;;;;3.60;0.80;;;22.70;99.90;;;;;;4393125;32;20155;-64
2023/09/08 08:35:32;;;;;;;0.50;0.50;;;22.80;99.90;;;;;;4400525;32;20097;-64
2023/09/08 08:38:00;;;;;;;0.62;0.62;;;22.90;99.90;;;;;;4377870;32;20089;-64
2023/09/08 08:40:26;;;;;;;0.50;0.50;;;22.90;99.90;;;;;;4374066;32;20576;-64
2023/09/08 08:42:55;;;;;;;0.47;0.47;;;23.00;99.90;;;;;;4387387;32;20657;-65
2023/09/08 08:45:24;;;;;;;1.33;0.62;;;23.10;99.90;;;;;;4390379;32;20101;-64
2023/09/08 08:47:50;;;;;;;0.70;0.70;;;23.20;99.90;;;;;;4387125;32;20698;-64
2023/09/08 08:50:17;;;;;;;0.50;0.50;;;23.30;99.90;;;;;;4397803;32;20082;-65
2023/09/08 08:52:43;;;;;;;0.40;0.40;;;23.30;99.90;;;;;;4395791;32;20069;-64
2023/09/08 08:55:09;;;;;;;0.55;0.55;;;23.40;99.90;;;;;;4379688;32;20899;-64
2023/09/08 08:57:38;;;;;;;0.55;0.55;;;23.50;99.90;;;;;;4378276;32;20212;-64
2023/09/08 09:00:09;;;;;;;0.32;0.32;;;23.60;99.90;;;;;;4364932;32;20183;-64
2023/09/08 09:02:36;;;;;;;1.87;0.50;;;23.80;99.90;;;;;;4369210;32;20098;-64
2023/09/08 09:05:03;;;;;;;0.50;0.50;;;23.80;99.90;;;;;;4385418;32;20553;-64
2023/09/08 09:07:28;;;;;;;1.35;0.62;;;24.00;99.90;;;;;;4393295;32;20101;-64
2023/09/08 09:09:55;;;;;;;1.83;0.90;;;24.10;99.90;;;;;;4386630;32;20539;-63
2023/09/08 09:12:22;;;;;;;0.50;0.50;;;24.20;99.90;;;;;;4388099;32;21441;-64
2023/09/08 09:14:47;;;;;;;0.70;0.60;;;24.30;99.90;;;;;;4371136;32;20976;-63
2023/09/08 09:17:14;;;;;;;0.60;0.60;;;24.50;99.90;;;;;;4384440;32;21167;-64
2023/09/08 09:19:40;;;;;;;0.65;0.50;;;24.60;99.90;;;;;;4380611;32;20105;-63
2023/09/08 09:22:05;;;;;;;0.50;0.50;;;24.80;99.90;;;;;;4370209;32;20114;-63
2023/09/08 09:24:36;;;;;;;3.62;0.68;;;24.90;99.90;;;;;;4382598;32;20224;-64
2023/09/08 09:27:05;;;;;;;0.50;0.50;;;25.10;99.90;;;;;;4368088;32;20089;-64
2023/09/08 09:29:32;;;;;;;0.80;0.60;;;25.20;99.90;;;;;;4375963;32;20148;-64
2023/09/08 09:32:03;;;;;;;0.40;0.40;;;25.40;99.90;;;;;;4359454;32;20377;-64
2023/09/08 09:34:29;;;;;;;;;;;25.50;99.90;;;;;;4372086;32;20794;-64
2023/09/08 09:36:55;;;;;;;0.60;0.60;;;25.60;99.90;;;;;;4398479;32;19973;-63
2023/09/08 09:39:24;;;;;;;1.35;0.50;;;25.80;99.90;;;;;;4367966;32;20413;-64
2023/09/08 09:41:53;;;;;;;0.37;0.37;;;26.00;99.90;;;;;;4391351;32;21200;-64
2023/09/08 09:44:19;;;;;;;0.95;0.50;;;26.00;99.90;;;;;;4382084;32;20100;-64
2023/09/08 09:46:46;;;;;;;0.73;0.73;;;26.10;99.90;;;;;;4396075;32;21004;-65
2023/09/08 09:49:14;;;;;;;0.57;0.57;;;26.30;99.90;;;;;;4386319;32;20134;-63
2023/09/08 09:51:42;;;;;;;1.00;0.90;;;26.40;99.90;;;;;;4395559;32;20596;-63
2023/09/08 09:54:08;;;;;;;0.82;0.70;;;26.40;99.90;;;;;;4393576;32;20878;-65
2023/09/08 09:56:36;;;;;;;0.55;0.55;;;26.60;99.90;;;;;;4388145;32;20104;-64
2023/09/08 09:59:03;;;;;;;0.40;0.40;;;26.70;99.90;;;;;;4396620;32;20249;-65
2023/09/08 10:01:30;;;;;;;3.20;1.40;;;26.80;99.90;;;;;;4392612;32;20181;-63
2023/09/08 10:03:57;;;;;;;1.05;0.95;;;26.90;99.90;;;;;;4392697;32;20069;-65
2023/09/08 10:06:25;;;;;;;0.65;0.50;;;27.10;99.90;;;;;;4400092;32;20089;-63
2023/09/08 10:08:51;;;;;;;0.45;0.40;;;27.20;99.90;;;;;;4404540;32;20327;-64
2023/09/08 10:11:21;;;;;;;0.40;0.37;;;27.30;99.90;;;;;;4405152;32;20553;-64
2023/09/08 10:13:50;;;;;;;3.37;0.65;;;27.30;99.90;;;;;;4403375;32;20596;-63
2023/09/08 10:16:19;;;;;;;0.20;0.20;;;27.50;99.90;;;;;;4393462;32;20078;-64
2023/09/08 10:18:47;;;;;;;0.40;0.32;;;27.70;99.90;;;;;;4407501;32;20098;-64
2023/09/08 10:21:16;;;;;;;0.40;0.25;;;27.80;99.90;;;;;;4386856;32;20061;-65
2023/09/08 10:23:50;;;;;;;0.47;0.47;;;27.90;99.90;;;;;;4394978;32;20513;-64
2023/09/08 10:26:17;;;;;;;0.50;0.50;;;28.00;99.90;;;;;;4394070;32;20137;-65
2023/09/08 10:28:44;;;;;;;2.58;0.40;;;28.10;99.90;;;;;;4409541;32;20406;-65
2023/09/08 10:31:10;;;;;;;0.70;0.50;;;28.40;99.50;;;;;;4395010;32;20137;-65
2023/09/08 10:33:36;;;;;;;0.90;0.60;;;28.50;99.00;;;;;;4408488;32;20144;-65
2023/09/08 10:36:05;;;;;;;0.30;0.30;;;28.70;99.10;;;;;;4410535;32;20568;-65
2023/09/08 10:38:33;;;;;;;0.35;0.35;;;28.90;98.50;;;;;;4396650;32;20564;-65
2023/09/08 10:41:23;;;;;;;0.43;0.43;;;28.70;98.40;;;;;;4391141;32;20112;-64
2023/09/08 10:43:59;;;;;;;0.37;0.37;;;28.40;98.50;;;;;;4400054;32;20660;-65
2023/09/08 10:46:27;;;;;;;0.25;0.25;;;28.50;98.40;;;;;;4413951;32;20064;-65
2023/09/08 10:49:03;;;;;;;2.45;1.35;;;28.60;97.20;;;;;;4396576;32;20098;-64
2023/09/08 10:51:29;;;;;;;0.32;0.32;;;28.90;96.90;;;;;;4387638;32;20220;-64
2023/09/08 10:53:54;;;;;;;0.50;0.50;;;29.00;97.90;;;;;;4417262;32;20088;-64
2023/09/08 10:56:20;;;;;;;13.10;0.70;;;29.40;96.50;;;;;;4400339;32;20658;-64
2023/09/08 10:58:51;;;;;;;0.20;0.20;;;29.60;95.50;;;;;;4408935;32;20191;-65
2023/09/08 11:01:18;;;;;;;1.23;0.60;;;29.70;96.20;;;;;;4398915;32;20073;-65
2023/09/08 11:03:47;;;;;;;0.15;0.15;;;30.00;95.30;;;;;;4413170;32;20073;-65
2023/09/08 11:06:15;;;;;;;2.62;0.32;;;30.30;94.40;;;;;;4399566;32;20073;-64
2023/09/08 11:08:42;;;;;;;1.15;0.57;;;30.50;93.80;;;;;;4411327;32;20070;-65
2023/09/08 11:11:11;;;;;;;1.08;0.55;;;30.40;93.70;;;;;;4414023;32;20174;-65
2023/09/08 11:13:36;;;;;;;0.68;0.50;;;30.40;93.30;;;;;;4398988;32;20122;-65
2023/09/08 11:16:03;;;;;;;0.65;0.40;;;30.30;93.20;;;;;;4413156;32;20093;-65
2023/09/08 11:18:30;;;;;;;0.57;0.40;;;30.40;92.40;;;;;;4413655;32;20073;-65
2023/09/08 11:20:56;;;;;;;0.28;0.28;;;30.50;92.90;;;;;;4411195;32;20530;-65
2023/09/08 11:23:23;;;;;;;0.20;0.20;;;30.80;91.90;;;;;;4389711;32;20077;-63
2023/09/08 11:25:50;;;;;;;0.55;0.43;;;31.20;91.50;;;;;;4391150;32;20105;-65
2023/09/08 11:28:17;;;;;;;0.20;0.20;;;31.10;91.60;;;;;;4369346;32;20515;-65
2023/09/08 11:30:42;;;;;;;5.50;0.82;;;30.90;91.60;;;;;;4404011;32;20077;-65
2023/09/08 11:33:24;;;;;;;0.20;0.20;;;30.80;92.10;;;;;;4410330;32;21000;-66
2023/09/08 11:35:51;;;;;;;1.23;0.20;;;31.00;92.70;;;;;;4410729;32;20081;-65
2023/09/08 11:38:16;;;;;;;2.17;0.77;;;31.40;91.20;;;;;;4396789;32;21494;-65
2023/09/08 11:40:42;;;;;;;0.60;0.60;;;31.70;90.70;;;;;;4414192;32;20074;-63
2023/09/08 11:43:07;;;;;;;7.12;0.32;;;32.20;88.10;;;;;;4409596;32;20524;-66
2023/09/08 11:45:35;;;;;;;1.80;0.60;;;32.10;88.20;;;;;;4411968;32;20078;-66
2023/09/08 11:48:01;;;;;;;0.52;0.52;;;32.10;87.80;;;;;;4391393;32;90700;-66
2023/09/08 11:50:26;;;;;;;0.95;0.52;;;32.30;87.50;;;;;;4414740;32;20062;-65
2023/09/08 11:52:53;;;;;;;0.35;0.35;;;32.80;85.80;;;;;;4412088;32;20077;-63
2023/09/08 11:55:21;;;;;;;0.20;0.20;;;32.80;83.90;;;;;;4399535;32;20064;-65
2023/09/08 11:57:50;;;;;;;0.10;0.10;;;32.80;83.90;;;;;;4411175;32;20090;-65
2023/09/08 12:00:17;;;;;;;0.32;0.32;;;32.80;85.00;;;;;;4412154;32;20085;-67
2023/09/08 12:02:44;;;;;;;0.57;0.43;;;32.90;83.20;;;;;;4410996;32;20497;-68
2023/09/08 12:05:13;;;;;;;0.73;0.40;;;32.90;83.50;;;;;;4413939;32;20092;-68
2023/09/08 12:07:39;;;;;;;0.30;0.30;;;33.10;84.30;;;;;;4414766;32;20119;-66
2023/09/08 12:10:10;;;;;;;2.15;0.77;;;33.40;84.00;;;;;;4411652;32;20070;-65
2023/09/08 12:12:42;;;;;;;1.02;0.60;;;33.90;83.40;;;;;;4411316;32;20585;-66
2023/09/08 12:15:08;;;;;;;3.03;0.80;;;34.10;82.80;;;;;;4413020;32;20085;-65
2023/09/08 12:17:46;;;;;;;0.73;0.52;;;34.00;82.30;;;;;;4412887;32;20093;-66
2023/09/08 12:20:14;;;;;;;1.65;0.57;;;33.90;83.60;;;;;;4411882;32;20086;-66
2023/09/08 12:22:48;;;;;;;1.40;0.43;;;33.90;83.60;;;;;;4411995;32;20065;-65
2023/09/08 12:25:14;;;;;;;0.45;0.45;;;33.90;80.20;;;;;;4412450;32;20081;-66
2023/09/08 12:27:39;;;;;;;0.30;0.30;;;33.80;79.80;;;;;;4411877;32;20132;-65
2023/09/08 12:30:06;;;;;;;0.75;0.57;;;33.90;79.10;;;;;;4410291;32;20096;-66
2023/09/08 12:32:32;;;;;;;0.30;0.30;;;34.40;79.40;;;;;;4410451;32;20101;-65
2023/09/08 12:34:58;;;;;;;0.50;0.50;;;34.80;79.00;;;;;;4411816;32;20084;-66
2023/09/08 12:37:27;;;;;;;0.30;0.30;;;34.80;78.40;;;;;;4412230;32;20089;-66
2023/09/08 12:39:53;;;;;;;0.52;0.52;;;34.60;78.30;;;;;;4410516;32;20086;-66
2023/09/08 12:42:20;;;;;;;2.92;0.40;;;34.70;79.30;;;;;;4411954;32;20468;-66
2023/09/08 12:44:46;;;;;;;1.35;0.88;;;35.10;77.30;;;;;;4414431;32;20097;-66